Portada
METAR-TAF:

METAR-TAF

Aeroports :

Ponce, Puerto Rico, Estats Units d'Amèrica

latitud: 18-01N, longitud: 066-34W, altitud: 8 m

METAR: manca

Hora: 19:12 (23:12 UTC)

Pronòstic

L'informe es va fer fa 5 hores i 36 minuts, a les 17:36 UTC
Pronòstic vàlid del 27 a les 18 UTC al 28 a les 18 UTC
Vent 12 kt del Sud
Visibilitat: 10 km
Escasses núvols a una alçada de 3000 ft
A partir de les 27 a les 2300 UTC
Vent 2 kt amb direcció variable
Visibilitat: 10 km
Cel clar
A partir de les 28 a les 1400 UTC
Vent 12 kt del Sud/Sud-Est
Visibilitat: 10 km
Escasses núvols a una alçada de 3000 ft

TAF: TJPS 271736Z 2718/2818 17012KT P6SM FEW030 FM272300 VRB02KT P6SM SKC FM281400 16012KT P6SM FEW030

Observacions i pronòstics meteorològics de més de 4000 aeroports (METAR i TAF).

Les estacions disponibles són els punts grocs i vermells al mapa.

Posi el ratolí al punt desitjat per veure el nom de l'estació.

Feu clic per veure les observacions i els pronòstics meteorològics.

Per canviar el mapa: feu clic els botons verds amb una creu de color negre per apropar; al botó verd amb un guió per allunyar la imatge; o en les fletxes verdes per a mapes adjacents.


METAR-TAF: